sensor_id;sensor_type;location;lat;lon;timestamp;P1;durP1;ratioP1;P2;durP2;ratioP2
13386;SDS011;6763;48.524;9.044;2022-12-29T00:01:42;5.25;;;2.92;;
13386;SDS011;6763;48.524;9.044;2022-12-29T00:04:09;3.28;;;2.33;;
13386;SDS011;6763;48.524;9.044;2022-12-29T00:06:37;3.10;;;2.78;;
13386;SDS011;6763;48.524;9.044;2022-12-29T00:09:02;6.10;;;2.30;;
13386;SDS011;6763;48.524;9.044;2022-12-29T00:11:28;5.63;;;2.63;;
13386;SDS011;6763;48.524;9.044;2022-12-29T00:13:53;4.03;;;2.33;;
13386;SDS011;6763;48.524;9.044;2022-12-29T00:16:37;2.83;;;2.60;;
13386;SDS011;6763;48.524;9.044;2022-12-29T00:19:05;14.20;;;2.65;;
13386;SDS011;6763;48.524;9.044;2022-12-29T00:21:30;2.55;;;2.15;;
13386;SDS011;6763;48.524;9.044;2022-12-29T00:24:16;2.72;;;2.42;;
13386;SDS011;6763;48.524;9.044;2022-12-29T00:26:58;5.45;;;2.95;;
13386;SDS011;6763;48.524;9.044;2022-12-29T00:29:50;2.13;;;1.92;;
13386;SDS011;6763;48.524;9.044;2022-12-29T00:32:34;4.45;;;2.97;;
13386;SDS011;6763;48.524;9.044;2022-12-29T00:35:25;6.40;;;3.00;;
13386;SDS011;6763;48.524;9.044;2022-12-29T00:37:54;4.43;;;2.65;;
13386;SDS011;6763;48.524;9.044;2022-12-29T00:40:40;3.50;;;2.88;;
13386;SDS011;6763;48.524;9.044;2022-12-29T00:43:24;1.63;;;1.35;;
13386;SDS011;6763;48.524;9.044;2022-12-29T00:46:08;4.72;;;1.40;;
13386;SDS011;6763;48.524;9.044;2022-12-29T00:48:34;1.25;;;1.15;;
13386;SDS011;6763;48.524;9.044;2022-12-29T00:51:18;2.08;;;1.58;;
13386;SDS011;6763;48.524;9.044;2022-12-29T00:53:43;2.25;;;1.17;;
13386;SDS011;6763;48.524;9.044;2022-12-29T00:56:08;1.55;;;1.45;;
13386;SDS011;6763;48.524;9.044;2022-12-29T00:58:34;2.15;;;1.35;;
13386;SDS011;6763;48.524;9.044;2022-12-29T01:01:03;1.60;;;1.27;;
13386;SDS011;6763;48.524;9.044;2022-12-29T01:03:30;1.77;;;1.35;;
13386;SDS011;6763;48.524;9.044;2022-12-29T01:05:55;1.67;;;1.40;;
13386;SDS011;6763;48.524;9.044;2022-12-29T01:08:21;3.25;;;1.33;;
13386;SDS011;6763;48.524;9.044;2022-12-29T01:10:46;2.00;;;1.10;;
13386;SDS011;6763;48.524;9.044;2022-12-29T01:13:22;1.98;;;1.85;;
13386;SDS011;6763;48.524;9.044;2022-12-29T01:15:51;3.58;;;1.35;;
13386;SDS011;6763;48.524;9.044;2022-12-29T01:18:18;2.80;;;1.55;;
13386;SDS011;6763;48.524;9.044;2022-12-29T01:20:43;1.88;;;1.30;;
13386;SDS011;6763;48.524;9.044;2022-12-29T01:23:08;1.05;;;0.98;;
13386;SDS011;6763;48.524;9.044;2022-12-29T01:25:34;2.03;;;1.30;;
13386;SDS011;6763;48.524;9.044;2022-12-29T01:27:59;1.25;;;1.15;;
13386;SDS011;6763;48.524;9.044;2022-12-29T01:30:24;0.90;;;0.90;;
13386;SDS011;6763;48.524;9.044;2022-12-29T01:32:50;1.25;;;1.08;;
13386;SDS011;6763;48.524;9.044;2022-12-29T01:35:15;1.20;;;1.10;;
13386;SDS011;6763;48.524;9.044;2022-12-29T01:37:40;1.35;;;1.25;;
13386;SDS011;6763;48.524;9.044;2022-12-29T01:40:06;1.40;;;1.20;;
13386;SDS011;6763;48.524;9.044;2022-12-29T01:42:32;1.27;;;1.13;;
13386;SDS011;6763;48.524;9.044;2022-12-29T01:44:58;2.67;;;2.13;;
13386;SDS011;6763;48.524;9.044;2022-12-29T01:50:11;4.93;;;2.10;;
13386;SDS011;6763;48.524;9.044;2022-12-29T01:52:47;2.05;;;1.25;;
13386;SDS011;6763;48.524;9.044;2022-12-29T01:55:19;1.67;;;1.20;;
13386;SDS011;6763;48.524;9.044;2022-12-29T01:57:45;1.13;;;1.00;;
13386;SDS011;6763;48.524;9.044;2022-12-29T02:00:13;0.95;;;0.65;;
13386;SDS011;6763;48.524;9.044;2022-12-29T02:02:47;1.65;;;1.00;;
13386;SDS011;6763;48.524;9.044;2022-12-29T02:05:24;0.95;;;0.73;;
13386;SDS011;6763;48.524;9.044;2022-12-29T02:07:53;1.55;;;1.30;;
13386;SDS011;6763;48.524;9.044;2022-12-29T02:10:20;1.33;;;0.90;;
13386;SDS011;6763;48.524;9.044;2022-12-29T02:12:48;0.93;;;0.93;;
13386;SDS011;6763;48.524;9.044;2022-12-29T02:15:13;0.93;;;0.80;;
13386;SDS011;6763;48.524;9.044;2022-12-29T02:20:46;1.20;;;0.98;;
13386;SDS011;6763;48.524;9.044;2022-12-29T02:26:34;0.73;;;0.73;;
13386;SDS011;6763;48.524;9.044;2022-12-29T02:29:21;0.80;;;0.80;;
13386;SDS011;6763;48.524;9.044;2022-12-29T02:34:47;0.60;;;0.60;;
13386;SDS011;6763;48.524;9.044;2022-12-29T02:37:24;0.63;;;0.63;;
13386;SDS011;6763;48.524;9.044;2022-12-29T02:42:36;1.38;;;0.80;;
13386;SDS011;6763;48.524;9.044;2022-12-29T02:50:43;0.63;;;0.60;;
13386;SDS011;6763;48.524;9.044;2022-12-29T02:53:19;2.25;;;0.50;;
13386;SDS011;6763;48.524;9.044;2022-12-29T02:56:06;0.40;;;0.40;;
13386;SDS011;6763;48.524;9.044;2022-12-29T02:58:31;0.40;;;0.40;;
13386;SDS011;6763;48.524;9.044;2022-12-29T03:01:03;0.50;;;0.50;;
13386;SDS011;6763;48.524;9.044;2022-12-29T03:07:08;0.60;;;0.60;;
13386;SDS011;6763;48.524;9.044;2022-12-29T03:16:08;0.47;;;0.47;;
13386;SDS011;6763;48.524;9.044;2022-12-29T03:18:56;1.05;;;0.65;;
13386;SDS011;6763;48.524;9.044;2022-12-29T03:24:19;0.50;;;0.50;;
13386;SDS011;6763;48.524;9.044;2022-12-29T03:26:49;0.60;;;0.57;;
13386;SDS011;6763;48.524;9.044;2022-12-29T03:29:17;1.33;;;0.68;;
13386;SDS011;6763;48.524;9.044;2022-12-29T03:31:45;0.47;;;0.47;;
13386;SDS011;6763;48.524;9.044;2022-12-29T03:34:13;0.60;;;0.52;;
13386;SDS011;6763;48.524;9.044;2022-12-29T03:36:42;0.40;;;0.40;;
13386;SDS011;6763;48.524;9.044;2022-12-29T03:39:13;0.45;;;0.45;;
13386;SDS011;6763;48.524;9.044;2022-12-29T03:41:42;0.57;;;0.57;;
13386;SDS011;6763;48.524;9.044;2022-12-29T03:44:09;0.50;;;0.50;;
13386;SDS011;6763;48.524;9.044;2022-12-29T03:46:35;3.90;;;0.57;;
13386;SDS011;6763;48.524;9.044;2022-12-29T03:49:01;1.15;;;0.60;;
13386;SDS011;6763;48.524;9.044;2022-12-29T03:51:26;0.30;;;0.30;;
13386;SDS011;6763;48.524;9.044;2022-12-29T03:53:52;0.30;;;0.30;;
13386;SDS011;6763;48.524;9.044;2022-12-29T03:56:17;0.50;;;0.50;;
13386;SDS011;6763;48.524;9.044;2022-12-29T03:58:42;0.60;;;0.60;;
13386;SDS011;6763;48.524;9.044;2022-12-29T04:01:08;1.30;;;0.80;;
13386;SDS011;6763;48.524;9.044;2022-12-29T04:03:33;0.50;;;0.50;;
13386;SDS011;6763;48.524;9.044;2022-12-29T04:05:58;0.50;;;0.50;;
13386;SDS011;6763;48.524;9.044;2022-12-29T04:08:24;2.33;;;0.60;;
13386;SDS011;6763;48.524;9.044;2022-12-29T04:10:49;0.80;;;0.52;;
13386;SDS011;6763;48.524;9.044;2022-12-29T04:13:15;0.40;;;0.40;;
13386;SDS011;6763;48.524;9.044;2022-12-29T04:15:41;0.50;;;0.50;;
13386;SDS011;6763;48.524;9.044;2022-12-29T04:18:08;0.40;;;0.40;;
13386;SDS011;6763;48.524;9.044;2022-12-29T04:20:33;1.40;;;1.10;;
13386;SDS011;6763;48.524;9.044;2022-12-29T04:23:17;0.45;;;0.45;;
13386;SDS011;6763;48.524;9.044;2022-12-29T04:25:44;0.57;;;0.57;;
13386;SDS011;6763;48.524;9.044;2022-12-29T04:28:12;0.73;;;0.73;;
13386;SDS011;6763;48.524;9.044;2022-12-29T04:30:37;0.45;;;0.40;;
13386;SDS011;6763;48.524;9.044;2022-12-29T04:33:03;1.75;;;0.50;;
13386;SDS011;6763;48.524;9.044;2022-12-29T04:35:28;0.47;;;0.47;;
13386;SDS011;6763;48.524;9.044;2022-12-29T04:37:53;1.52;;;0.40;;
13386;SDS011;6763;48.524;9.044;2022-12-29T04:40:18;0.50;;;0.50;;
13386;SDS011;6763;48.524;9.044;2022-12-29T04:42:44;0.60;;;0.40;;
13386;SDS011;6763;48.524;9.044;2022-12-29T04:45:09;0.55;;;0.55;;
13386;SDS011;6763;48.524;9.044;2022-12-29T04:47:35;0.50;;;0.50;;
13386;SDS011;6763;48.524;9.044;2022-12-29T04:50:00;0.43;;;0.43;;
13386;SDS011;6763;48.524;9.044;2022-12-29T04:52:26;3.83;;;0.80;;
13386;SDS011;6763;48.524;9.044;2022-12-29T04:54:51;0.73;;;0.70;;
13386;SDS011;6763;48.524;9.044;2022-12-29T04:57:16;1.35;;;0.65;;
13386;SDS011;6763;48.524;9.044;2022-12-29T04:59:42;0.85;;;0.50;;
13386;SDS011;6763;48.524;9.044;2022-12-29T05:02:07;0.57;;;0.57;;
13386;SDS011;6763;48.524;9.044;2022-12-29T05:04:32;0.93;;;0.80;;
13386;SDS011;6763;48.524;9.044;2022-12-29T05:06:57;1.00;;;0.60;;
13386;SDS011;6763;48.524;9.044;2022-12-29T05:09:23;1.85;;;1.00;;
13386;SDS011;6763;48.524;9.044;2022-12-29T05:11:49;0.85;;;0.50;;
13386;SDS011;6763;48.524;9.044;2022-12-29T05:14:14;3.33;;;0.70;;
13386;SDS011;6763;48.524;9.044;2022-12-29T05:16:39;0.63;;;0.60;;
13386;SDS011;6763;48.524;9.044;2022-12-29T05:19:05;0.77;;;0.60;;
13386;SDS011;6763;48.524;9.044;2022-12-29T05:21:30;0.73;;;0.60;;
13386;SDS011;6763;48.524;9.044;2022-12-29T05:23:56;1.05;;;0.80;;
13386;SDS011;6763;48.524;9.044;2022-12-29T05:26:21;1.50;;;0.90;;
13386;SDS011;6763;48.524;9.044;2022-12-29T05:28:47;0.45;;;0.45;;
13386;SDS011;6763;48.524;9.044;2022-12-29T05:31:12;0.82;;;0.70;;
13386;SDS011;6763;48.524;9.044;2022-12-29T05:33:37;0.73;;;0.60;;
13386;SDS011;6763;48.524;9.044;2022-12-29T05:36:04;0.50;;;0.50;;
13386;SDS011;6763;48.524;9.044;2022-12-29T05:38:30;0.52;;;0.52;;
13386;SDS011;6763;48.524;9.044;2022-12-29T05:40:55;0.63;;;0.50;;
13386;SDS011;6763;48.524;9.044;2022-12-29T05:43:21;0.70;;;0.70;;
13386;SDS011;6763;48.524;9.044;2022-12-29T05:45:48;0.60;;;0.60;;
13386;SDS011;6763;48.524;9.044;2022-12-29T05:48:14;0.68;;;0.63;;
13386;SDS011;6763;48.524;9.044;2022-12-29T05:50:39;0.60;;;0.60;;
13386;SDS011;6763;48.524;9.044;2022-12-29T05:53:05;0.40;;;0.40;;
13386;SDS011;6763;48.524;9.044;2022-12-29T05:55:30;0.50;;;0.50;;
13386;SDS011;6763;48.524;9.044;2022-12-29T05:57:56;0.60;;;0.60;;
13386;SDS011;6763;48.524;9.044;2022-12-29T06:00:21;0.60;;;0.60;;
13386;SDS011;6763;48.524;9.044;2022-12-29T06:02:46;0.60;;;0.60;;
13386;SDS011;6763;48.524;9.044;2022-12-29T06:05:12;1.48;;;0.65;;
13386;SDS011;6763;48.524;9.044;2022-12-29T06:07:37;0.98;;;0.70;;
13386;SDS011;6763;48.524;9.044;2022-12-29T06:10:03;0.75;;;0.63;;
13386;SDS011;6763;48.524;9.044;2022-12-29T06:12:30;0.40;;;0.40;;
13386;SDS011;6763;48.524;9.044;2022-12-29T06:14:55;1.10;;;0.70;;
13386;SDS011;6763;48.524;9.044;2022-12-29T06:17:21;0.70;;;0.60;;
13386;SDS011;6763;48.524;9.044;2022-12-29T06:19:46;1.05;;;0.70;;
13386;SDS011;6763;48.524;9.044;2022-12-29T06:22:11;0.50;;;0.50;;
13386;SDS011;6763;48.524;9.044;2022-12-29T06:24:37;0.55;;;0.55;;
13386;SDS011;6763;48.524;9.044;2022-12-29T06:27:03;1.23;;;0.80;;
13386;SDS011;6763;48.524;9.044;2022-12-29T06:29:28;1.77;;;0.68;;
13386;SDS011;6763;48.524;9.044;2022-12-29T06:31:53;0.40;;;0.40;;
13386;SDS011;6763;48.524;9.044;2022-12-29T06:34:23;0.60;;;0.60;;
13386;SDS011;6763;48.524;9.044;2022-12-29T06:36:50;0.60;;;0.60;;
13386;SDS011;6763;48.524;9.044;2022-12-29T06:39:16;0.50;;;0.50;;
13386;SDS011;6763;48.524;9.044;2022-12-29T06:41:41;0.70;;;0.70;;
13386;SDS011;6763;48.524;9.044;2022-12-29T06:44:06;0.70;;;0.70;;
13386;SDS011;6763;48.524;9.044;2022-12-29T06:46:32;0.80;;;0.60;;
13386;SDS011;6763;48.524;9.044;2022-12-29T06:48:57;0.50;;;0.50;;
13386;SDS011;6763;48.524;9.044;2022-12-29T06:51:22;0.60;;;0.60;;
13386;SDS011;6763;48.524;9.044;2022-12-29T06:53:48;0.40;;;0.40;;
13386;SDS011;6763;48.524;9.044;2022-12-29T06:56:13;0.60;;;0.60;;
13386;SDS011;6763;48.524;9.044;2022-12-29T06:58:38;0.60;;;0.60;;
13386;SDS011;6763;48.524;9.044;2022-12-29T07:01:04;0.60;;;0.60;;
13386;SDS011;6763;48.524;9.044;2022-12-29T07:03:29;0.47;;;0.47;;
13386;SDS011;6763;48.524;9.044;2022-12-29T07:05:55;0.70;;;0.70;;
13386;SDS011;6763;48.524;9.044;2022-12-29T07:08:20;0.65;;;0.60;;
13386;SDS011;6763;48.524;9.044;2022-12-29T07:10:46;1.05;;;0.80;;
13386;SDS011;6763;48.524;9.044;2022-12-29T07:13:11;0.60;;;0.60;;
13386;SDS011;6763;48.524;9.044;2022-12-29T07:15:37;0.77;;;0.68;;
13386;SDS011;6763;48.524;9.044;2022-12-29T07:18:02;1.15;;;0.60;;
13386;SDS011;6763;48.524;9.044;2022-12-29T07:20:29;0.60;;;0.60;;
13386;SDS011;6763;48.524;9.044;2022-12-29T07:22:54;0.50;;;0.50;;
13386;SDS011;6763;48.524;9.044;2022-12-29T07:25:20;1.52;;;1.10;;
13386;SDS011;6763;48.524;9.044;2022-12-29T07:27:45;0.98;;;0.68;;
13386;SDS011;6763;48.524;9.044;2022-12-29T07:30:10;0.73;;;0.60;;
13386;SDS011;6763;48.524;9.044;2022-12-29T07:32:36;0.70;;;0.70;;
13386;SDS011;6763;48.524;9.044;2022-12-29T07:35:02;0.77;;;0.75;;
13386;SDS011;6763;48.524;9.044;2022-12-29T07:37:28;0.43;;;0.43;;
13386;SDS011;6763;48.524;9.044;2022-12-29T07:39:53;0.50;;;0.50;;
13386;SDS011;6763;48.524;9.044;2022-12-29T07:42:18;0.68;;;0.63;;
13386;SDS011;6763;48.524;9.044;2022-12-29T07:44:44;1.67;;;0.80;;
13386;SDS011;6763;48.524;9.044;2022-12-29T07:47:09;0.55;;;0.50;;
13386;SDS011;6763;48.524;9.044;2022-12-29T07:49:34;0.65;;;0.65;;
13386;SDS011;6763;48.524;9.044;2022-12-29T07:52:00;0.70;;;0.70;;
13386;SDS011;6763;48.524;9.044;2022-12-29T07:54:25;0.77;;;0.60;;
13386;SDS011;6763;48.524;9.044;2022-12-29T07:56:51;1.00;;;0.90;;
13386;SDS011;6763;48.524;9.044;2022-12-29T07:59:16;0.77;;;0.60;;
13386;SDS011;6763;48.524;9.044;2022-12-29T08:01:42;0.77;;;0.70;;
13386;SDS011;6763;48.524;9.044;2022-12-29T08:04:07;1.02;;;0.68;;
13386;SDS011;6763;48.524;9.044;2022-12-29T08:06:33;0.82;;;0.73;;
13386;SDS011;6763;48.524;9.044;2022-12-29T08:08:59;0.45;;;0.45;;
13386;SDS011;6763;48.524;9.044;2022-12-29T08:11:25;0.60;;;0.60;;
13386;SDS011;6763;48.524;9.044;2022-12-29T08:13:51;0.57;;;0.57;;
13386;SDS011;6763;48.524;9.044;2022-12-29T08:16:16;1.05;;;0.80;;
13386;SDS011;6763;48.524;9.044;2022-12-29T08:18:42;3.60;;;0.38;;
13386;SDS011;6763;48.524;9.044;2022-12-29T08:21:07;0.45;;;0.45;;
13386;SDS011;6763;48.524;9.044;2022-12-29T08:23:33;1.25;;;0.43;;
13386;SDS011;6763;48.524;9.044;2022-12-29T08:25:58;0.88;;;0.77;;
13386;SDS011;6763;48.524;9.044;2022-12-29T08:28:25;3.80;;;1.73;;
13386;SDS011;6763;48.524;9.044;2022-12-29T08:30:51;4.53;;;1.25;;
13386;SDS011;6763;48.524;9.044;2022-12-29T08:33:16;3.65;;;1.63;;
13386;SDS011;6763;48.524;9.044;2022-12-29T08:35:41;6.03;;;1.30;;
13386;SDS011;6763;48.524;9.044;2022-12-29T08:38:07;0.93;;;0.60;;
13386;SDS011;6763;48.524;9.044;2022-12-29T08:40:32;1.65;;;0.50;;
13386;SDS011;6763;48.524;9.044;2022-12-29T08:42:57;1.50;;;1.00;;
13386;SDS011;6763;48.524;9.044;2022-12-29T08:45:22;0.93;;;0.50;;
13386;SDS011;6763;48.524;9.044;2022-12-29T08:47:48;0.63;;;0.50;;
13386;SDS011;6763;48.524;9.044;2022-12-29T08:50:13;0.52;;;0.52;;
13386;SDS011;6763;48.524;9.044;2022-12-29T08:52:38;1.40;;;0.70;;
13386;SDS011;6763;48.524;9.044;2022-12-29T08:55:04;0.80;;;0.52;;
13386;SDS011;6763;48.524;9.044;2022-12-29T08:57:30;0.60;;;0.60;;
13386;SDS011;6763;48.524;9.044;2022-12-29T08:59:55;0.40;;;0.40;;
13386;SDS011;6763;48.524;9.044;2022-12-29T09:02:20;0.68;;;0.68;;
13386;SDS011;6763;48.524;9.044;2022-12-29T09:04:46;0.60;;;0.60;;
13386;SDS011;6763;48.524;9.044;2022-12-29T09:07:11;1.10;;;0.88;;
13386;SDS011;6763;48.524;9.044;2022-12-29T09:09:36;0.52;;;0.52;;
13386;SDS011;6763;48.524;9.044;2022-12-29T09:12:02;0.60;;;0.60;;
13386;SDS011;6763;48.524;9.044;2022-12-29T09:14:27;1.58;;;1.17;;
13386;SDS011;6763;48.524;9.044;2022-12-29T09:16:53;1.25;;;1.00;;
13386;SDS011;6763;48.524;9.044;2022-12-29T09:19:37;0.50;;;0.47;;
13386;SDS011;6763;48.524;9.044;2022-12-29T09:22:03;0.60;;;0.60;;
13386;SDS011;6763;48.524;9.044;2022-12-29T09:24:28;0.60;;;0.50;;
13386;SDS011;6763;48.524;9.044;2022-12-29T09:26:53;0.60;;;0.60;;
13386;SDS011;6763;48.524;9.044;2022-12-29T09:29:19;0.80;;;0.80;;
13386;SDS011;6763;48.524;9.044;2022-12-29T09:31:44;1.77;;;1.02;;
13386;SDS011;6763;48.524;9.044;2022-12-29T09:34:09;1.02;;;0.80;;
13386;SDS011;6763;48.524;9.044;2022-12-29T09:36:35;3.33;;;0.73;;
13386;SDS011;6763;48.524;9.044;2022-12-29T09:39:00;2.20;;;0.60;;
13386;SDS011;6763;48.524;9.044;2022-12-29T09:47:02;0.50;;;0.50;;
13386;SDS011;6763;48.524;9.044;2022-12-29T09:49:35;0.38;;;0.38;;
13386;SDS011;6763;48.524;9.044;2022-12-29T09:52:15;0.93;;;0.85;;
13386;SDS011;6763;48.524;9.044;2022-12-29T09:57:42;0.57;;;0.57;;
13386;SDS011;6763;48.524;9.044;2022-12-29T10:00:13;1.65;;;0.70;;
13386;SDS011;6763;48.524;9.044;2022-12-29T10:05:35;1.52;;;0.73;;
13386;SDS011;6763;48.524;9.044;2022-12-29T10:10:51;0.55;;;0.55;;
13386;SDS011;6763;48.524;9.044;2022-12-29T10:16:19;0.35;;;0.35;;
13386;SDS011;6763;48.524;9.044;2022-12-29T10:24:22;0.50;;;0.50;;
13386;SDS011;6763;48.524;9.044;2022-12-29T10:26:47;3.03;;;0.75;;
13386;SDS011;6763;48.524;9.044;2022-12-29T10:29:17;0.35;;;0.35;;
13386;SDS011;6763;48.524;9.044;2022-12-29T10:34:33;0.40;;;0.40;;
13386;SDS011;6763;48.524;9.044;2022-12-29T10:37:03;0.60;;;0.60;;
13386;SDS011;6763;48.524;9.044;2022-12-29T10:44:53;0.50;;;0.50;;
13386;SDS011;6763;48.524;9.044;2022-12-29T10:47:21;3.78;;;0.88;;
13386;SDS011;6763;48.524;9.044;2022-12-29T10:49:51;1.02;;;0.82;;
13386;SDS011;6763;48.524;9.044;2022-12-29T10:52:17;0.65;;;0.60;;
13386;SDS011;6763;48.524;9.044;2022-12-29T10:54:48;0.63;;;0.60;;
13386;SDS011;6763;48.524;9.044;2022-12-29T10:57:35;1.75;;;0.73;;
13386;SDS011;6763;48.524;9.044;2022-12-29T11:00:11;0.68;;;0.47;;
13386;SDS011;6763;48.524;9.044;2022-12-29T11:05:21;1.65;;;0.60;;
13386;SDS011;6763;48.524;9.044;2022-12-29T11:07:47;0.70;;;0.68;;
13386;SDS011;6763;48.524;9.044;2022-12-29T11:10:15;2.75;;;0.70;;
13386;SDS011;6763;48.524;9.044;2022-12-29T11:13:15;0.47;;;0.47;;
13386;SDS011;6763;48.524;9.044;2022-12-29T11:15:44;0.60;;;0.60;;
13386;SDS011;6763;48.524;9.044;2022-12-29T11:20:54;0.50;;;0.40;;
13386;SDS011;6763;48.524;9.044;2022-12-29T11:23:31;0.77;;;0.57;;
13386;SDS011;6763;48.524;9.044;2022-12-29T11:31:51;1.33;;;0.55;;
13386;SDS011;6763;48.524;9.044;2022-12-29T11:34:21;0.70;;;0.70;;
13386;SDS011;6763;48.524;9.044;2022-12-29T11:37:13;0.40;;;0.40;;
13386;SDS011;6763;48.524;9.044;2022-12-29T11:42:22;0.65;;;0.60;;
13386;SDS011;6763;48.524;9.044;2022-12-29T11:44:59;0.40;;;0.40;;
13386;SDS011;6763;48.524;9.044;2022-12-29T11:47:32;0.68;;;0.68;;
13386;SDS011;6763;48.524;9.044;2022-12-29T11:50:02;3.33;;;0.90;;
13386;SDS011;6763;48.524;9.044;2022-12-29T11:52:31;1.38;;;0.90;;
13386;SDS011;6763;48.524;9.044;2022-12-29T11:55:00;1.30;;;1.02;;
13386;SDS011;6763;48.524;9.044;2022-12-29T11:57:29;1.13;;;0.77;;
13386;SDS011;6763;48.524;9.044;2022-12-29T11:59:59;0.50;;;0.50;;
13386;SDS011;6763;48.524;9.044;2022-12-29T12:02:33;0.60;;;0.60;;
13386;SDS011;6763;48.524;9.044;2022-12-29T12:10:34;0.47;;;0.47;;
13386;SDS011;6763;48.524;9.044;2022-12-29T12:15:52;1.92;;;0.50;;
13386;SDS011;6763;48.524;9.044;2022-12-29T12:21:14;0.60;;;0.60;;
13386;SDS011;6763;48.524;9.044;2022-12-29T12:26:50;0.82;;;0.73;;
13386;SDS011;6763;48.524;9.044;2022-12-29T12:29:25;0.93;;;0.85;;
13386;SDS011;6763;48.524;9.044;2022-12-29T12:34:43;0.35;;;0.35;;
13386;SDS011;6763;48.524;9.044;2022-12-29T12:37:15;0.55;;;0.55;;
13386;SDS011;6763;48.524;9.044;2022-12-29T12:56:25;0.82;;;0.70;;
13386;SDS011;6763;48.524;9.044;2022-12-29T13:02:30;0.47;;;0.47;;
13386;SDS011;6763;48.524;9.044;2022-12-29T13:04:56;0.80;;;0.80;;
13386;SDS011;6763;48.524;9.044;2022-12-29T13:07:40;1.67;;;1.38;;
13386;SDS011;6763;48.524;9.044;2022-12-29T13:12:53;1.27;;;0.85;;
13386;SDS011;6763;48.524;9.044;2022-12-29T13:15:41;1.20;;;0.57;;
13386;SDS011;6763;48.524;9.044;2022-12-29T13:26:23;1.02;;;0.90;;
13386;SDS011;6763;48.524;9.044;2022-12-29T13:29:17;3.20;;;0.63;;
13386;SDS011;6763;48.524;9.044;2022-12-29T13:31:50;1.10;;;1.00;;
13386;SDS011;6763;48.524;9.044;2022-12-29T13:37:01;1.27;;;1.02;;
13386;SDS011;6763;48.524;9.044;2022-12-29T13:39:44;0.70;;;0.70;;
13386;SDS011;6763;48.524;9.044;2022-12-29T13:42:14;0.50;;;0.50;;
13386;SDS011;6763;48.524;9.044;2022-12-29T13:44:45;0.80;;;0.60;;
13386;SDS011;6763;48.524;9.044;2022-12-29T13:49:41;0.57;;;0.57;;
13386;SDS011;6763;48.524;9.044;2022-12-29T13:52:32;0.50;;;0.50;;
13386;SDS011;6763;48.524;9.044;2022-12-29T14:02:46;0.85;;;0.82;;
13386;SDS011;6763;48.524;9.044;2022-12-29T14:05:35;1.05;;;0.82;;
13386;SDS011;6763;48.524;9.044;2022-12-29T14:08:04;1.05;;;0.60;;
13386;SDS011;6763;48.524;9.044;2022-12-29T14:10:38;0.93;;;0.60;;
13386;SDS011;6763;48.524;9.044;2022-12-29T14:13:13;0.82;;;0.80;;
13386;SDS011;6763;48.524;9.044;2022-12-29T14:15:43;0.82;;;0.70;;
13386;SDS011;6763;48.524;9.044;2022-12-29T14:18:19;0.50;;;0.50;;
13386;SDS011;6763;48.524;9.044;2022-12-29T14:21:01;0.60;;;0.60;;
13386;SDS011;6763;48.524;9.044;2022-12-29T14:28:54;0.73;;;0.65;;
13386;SDS011;6763;48.524;9.044;2022-12-29T14:36:39;0.52;;;0.52;;
13386;SDS011;6763;48.524;9.044;2022-12-29T14:44:30;1.15;;;0.95;;
13386;SDS011;6763;48.524;9.044;2022-12-29T14:46:57;0.68;;;0.68;;
13386;SDS011;6763;48.524;9.044;2022-12-29T14:49:31;4.13;;;0.63;;
13386;SDS011;6763;48.524;9.044;2022-12-29T14:52:05;2.28;;;0.95;;
13386;SDS011;6763;48.524;9.044;2022-12-29T14:57:07;1.02;;;0.88;;
13386;SDS011;6763;48.524;9.044;2022-12-29T14:59:38;0.40;;;0.40;;
13386;SDS011;6763;48.524;9.044;2022-12-29T15:02:10;2.17;;;0.60;;
13386;SDS011;6763;48.524;9.044;2022-12-29T15:04:40;0.60;;;0.60;;
13386;SDS011;6763;48.524;9.044;2022-12-29T15:07:08;1.42;;;0.73;;
13386;SDS011;6763;48.524;9.044;2022-12-29T15:09:45;0.55;;;0.50;;
13386;SDS011;6763;48.524;9.044;2022-12-29T15:14:49;0.80;;;0.70;;
13386;SDS011;6763;48.524;9.044;2022-12-29T15:19:56;0.85;;;0.85;;
13386;SDS011;6763;48.524;9.044;2022-12-29T15:22:23;0.80;;;0.80;;
13386;SDS011;6763;48.524;9.044;2022-12-29T15:24:50;1.25;;;1.10;;
13386;SDS011;6763;48.524;9.044;2022-12-29T15:27:24;2.63;;;0.98;;
13386;SDS011;6763;48.524;9.044;2022-12-29T15:29:58;0.68;;;0.68;;
13386;SDS011;6763;48.524;9.044;2022-12-29T15:32:27;0.52;;;0.52;;
13386;SDS011;6763;48.524;9.044;2022-12-29T15:34:55;0.75;;;0.75;;
13386;SDS011;6763;48.524;9.044;2022-12-29T15:39:54;0.60;;;0.60;;
13386;SDS011;6763;48.524;9.044;2022-12-29T15:42:23;0.70;;;0.70;;
13386;SDS011;6763;48.524;9.044;2022-12-29T15:44:52;0.52;;;0.52;;
13386;SDS011;6763;48.524;9.044;2022-12-29T15:47:21;0.70;;;0.60;;
13386;SDS011;6763;48.524;9.044;2022-12-29T15:49:50;2.80;;;0.82;;
13386;SDS011;6763;48.524;9.044;2022-12-29T15:52:21;2.30;;;0.95;;
13386;SDS011;6763;48.524;9.044;2022-12-29T15:54:48;1.10;;;0.68;;
13386;SDS011;6763;48.524;9.044;2022-12-29T15:57:23;4.32;;;2.53;;
13386;SDS011;6763;48.524;9.044;2022-12-29T15:59:53;1.73;;;1.00;;
13386;SDS011;6763;48.524;9.044;2022-12-29T16:02:20;3.30;;;1.00;;
13386;SDS011;6763;48.524;9.044;2022-12-29T16:04:48;4.40;;;1.88;;
13386;SDS011;6763;48.524;9.044;2022-12-29T16:07:27;4.45;;;2.13;;
13386;SDS011;6763;48.524;9.044;2022-12-29T16:09:56;2.72;;;1.50;;
13386;SDS011;6763;48.524;9.044;2022-12-29T16:12:33;1.90;;;1.05;;
13386;SDS011;6763;48.524;9.044;2022-12-29T16:15:01;3.88;;;1.60;;
13386;SDS011;6763;48.524;9.044;2022-12-29T16:17:30;5.50;;;3.40;;
13386;SDS011;6763;48.524;9.044;2022-12-29T16:20:19;3.28;;;1.92;;
13386;SDS011;6763;48.524;9.044;2022-12-29T16:22:54;1.92;;;1.55;;
13386;SDS011;6763;48.524;9.044;2022-12-29T16:25:23;2.97;;;1.95;;
13386;SDS011;6763;48.524;9.044;2022-12-29T16:27:52;3.35;;;1.73;;
13386;SDS011;6763;48.524;9.044;2022-12-29T16:32:53;1.60;;;1.40;;
13386;SDS011;6763;48.524;9.044;2022-12-29T16:35:25;3.25;;;1.58;;
13386;SDS011;6763;48.524;9.044;2022-12-29T16:40:54;2.92;;;2.03;;
13386;SDS011;6763;48.524;9.044;2022-12-29T16:43:34;3.55;;;2.40;;
13386;SDS011;6763;48.524;9.044;2022-12-29T16:46:16;6.13;;;3.42;;
13386;SDS011;6763;48.524;9.044;2022-12-29T16:48:49;7.10;;;3.22;;
13386;SDS011;6763;48.524;9.044;2022-12-29T16:51:30;2.92;;;1.77;;
13386;SDS011;6763;48.524;9.044;2022-12-29T16:53:58;4.00;;;2.78;;
13386;SDS011;6763;48.524;9.044;2022-12-29T16:56:25;6.55;;;2.38;;
13386;SDS011;6763;48.524;9.044;2022-12-29T16:59:08;6.25;;;2.38;;
13386;SDS011;6763;48.524;9.044;2022-12-29T17:01:50;2.55;;;1.92;;
13386;SDS011;6763;48.524;9.044;2022-12-29T17:04:16;6.57;;;3.63;;
13386;SDS011;6763;48.524;9.044;2022-12-29T17:06:41;4.57;;;2.17;;
13386;SDS011;6763;48.524;9.044;2022-12-29T17:09:40;6.68;;;2.85;;
13386;SDS011;6763;48.524;9.044;2022-12-29T17:11:59;7.25;;;2.83;;
13386;SDS011;6763;48.524;9.044;2022-12-29T17:17:17;4.05;;;2.33;;
13386;SDS011;6763;48.524;9.044;2022-12-29T17:19:47;5.15;;;2.85;;
13386;SDS011;6763;48.524;9.044;2022-12-29T17:22:16;4.07;;;2.17;;
13386;SDS011;6763;48.524;9.044;2022-12-29T17:24:45;6.22;;;2.42;;
13386;SDS011;6763;48.524;9.044;2022-12-29T17:27:18;2.88;;;2.17;;
13386;SDS011;6763;48.524;9.044;2022-12-29T17:30:08;3.88;;;1.85;;
13386;SDS011;6763;48.524;9.044;2022-12-29T17:32:35;4.38;;;2.35;;
13386;SDS011;6763;48.524;9.044;2022-12-29T17:35:00;2.22;;;1.67;;
13386;SDS011;6763;48.524;9.044;2022-12-29T17:37:28;2.33;;;1.70;;
13386;SDS011;6763;48.524;9.044;2022-12-29T17:40:03;4.07;;;2.08;;
13386;SDS011;6763;48.524;9.044;2022-12-29T17:42:31;3.15;;;2.08;;
13386;SDS011;6763;48.524;9.044;2022-12-29T17:45:02;2.72;;;1.70;;
13386;SDS011;6763;48.524;9.044;2022-12-29T17:47:28;3.10;;;2.20;;
13386;SDS011;6763;48.524;9.044;2022-12-29T17:49:54;3.22;;;2.58;;
13386;SDS011;6763;48.524;9.044;2022-12-29T17:52:20;4.20;;;2.58;;
13386;SDS011;6763;48.524;9.044;2022-12-29T17:54:47;6.22;;;3.13;;
13386;SDS011;6763;48.524;9.044;2022-12-29T17:57:15;7.90;;;3.42;;
13386;SDS011;6763;48.524;9.044;2022-12-29T17:59:42;5.57;;;2.65;;
13386;SDS011;6763;48.524;9.044;2022-12-29T18:02:22;5.25;;;2.78;;
13386;SDS011;6763;48.524;9.044;2022-12-29T18:04:48;6.95;;;3.85;;
13386;SDS011;6763;48.524;9.044;2022-12-29T18:07:13;11.82;;;5.90;;